createdAt,value
2018-01-06T00:01:27.790Z,65.90
2018-01-06T00:03:55.773Z,66.80
2018-01-06T00:06:24.116Z,66.80
2018-01-06T00:08:52.463Z,66.80
2018-01-06T00:11:21.652Z,66.90
2018-01-06T00:13:49.259Z,67.10
2018-01-06T00:16:18.024Z,66.80
2018-01-06T00:18:45.600Z,67.40
2018-01-06T00:21:14.178Z,67.70
2018-01-06T00:23:42.518Z,68.00
2018-01-06T00:26:10.843Z,68.10
2018-01-06T00:28:39.228Z,68.30
2018-01-06T00:31:07.510Z,66.70
2018-01-06T00:33:35.859Z,68.80
2018-01-06T00:36:04.179Z,69.20
2018-01-06T00:38:32.498Z,69.20
2018-01-06T00:41:01.049Z,69.10
2018-01-06T00:43:29.038Z,68.90
2018-01-06T00:45:58.287Z,69.00
2018-01-06T00:48:25.859Z,69.00
2018-01-06T00:50:54.137Z,69.00
2018-01-06T00:53:22.469Z,69.00
2018-01-06T00:55:50.767Z,69.10
2018-01-06T00:58:19.813Z,69.50
2018-01-06T01:00:47.345Z,68.70
2018-01-06T01:03:14.866Z,68.80
2018-01-06T01:05:42.807Z,68.70
2018-01-06T01:08:11.104Z,69.20
2018-01-06T01:10:39.404Z,69.10
2018-01-06T01:13:07.736Z,68.90
2018-01-06T01:15:36.218Z,69.20
2018-01-06T01:18:04.508Z,69.30
2018-01-06T01:20:32.937Z,69.40
2018-01-06T01:23:01.954Z,69.60
2018-01-06T01:25:29.493Z,69.80
2018-01-06T01:27:57.779Z,69.40
2018-01-06T01:30:26.327Z,69.60
2018-01-06T01:32:54.612Z,69.50
2018-01-06T01:35:22.921Z,69.80
2018-01-06T01:37:50.441Z,69.90
2018-01-06T01:40:17.972Z,70.00
2018-01-06T01:42:45.502Z,70.40
2018-01-06T01:45:13.800Z,70.60
2018-01-06T01:47:41.708Z,70.20
2018-01-06T01:50:09.258Z,70.10
2018-01-06T01:52:36.766Z,70.10
2018-01-06T01:55:04.334Z,70.10
2018-01-06T01:57:31.858Z,70.60
2018-01-06T01:59:59.644Z,69.70
2018-01-06T02:02:27.160Z,70.20
2018-01-06T02:04:54.689Z,69.60
2018-01-06T02:07:22.209Z,70.20
2018-01-06T02:12:47.969Z,70.00
2018-01-06T02:15:15.501Z,70.10
2018-01-06T02:17:43.020Z,70.70
2018-01-06T02:20:10.558Z,70.10
2018-01-06T02:22:38.078Z,70.00
2018-01-06T02:25:06.554Z,70.10
2018-01-06T02:27:34.079Z,70.00
2018-01-06T02:30:01.609Z,69.90
2018-01-06T02:32:29.916Z,70.50
2018-01-06T02:34:57.430Z,69.80
2018-01-06T02:37:24.972Z,69.80
2018-01-06T02:39:53.254Z,69.80
2018-01-06T02:42:20.792Z,70.30
2018-01-06T02:44:48.309Z,69.70
2018-01-06T02:47:16.609Z,70.20
2018-01-06T02:49:44.124Z,70.30
2018-01-06T02:52:11.678Z,70.40
2018-01-06T02:54:39.202Z,70.70
2018-01-06T02:57:06.750Z,71.20
2018-01-06T02:59:35.035Z,69.90
2018-01-06T03:02:02.567Z,69.90
2018-01-06T03:04:30.072Z,69.90
2018-01-06T03:06:59.469Z,70.10
2018-01-06T03:09:27.007Z,70.60
2018-01-06T03:11:54.537Z,70.40
2018-01-06T03:14:22.859Z,70.70
2018-01-06T03:16:50.395Z,70.70
2018-01-06T03:19:17.917Z,70.70
2018-01-06T03:21:45.726Z,70.60
2018-01-06T03:24:13.241Z,70.10
2018-01-06T03:26:40.776Z,70.60
2018-01-06T03:29:08.293Z,70.20
2018-01-06T03:31:35.832Z,70.30
2018-01-06T03:34:04.113Z,70.80
2018-01-06T03:36:32.421Z,71.10
2018-01-06T03:38:59.938Z,70.30
2018-01-06T03:41:29.072Z,70.40
2018-01-06T03:43:56.593Z,69.90
2018-01-06T03:46:24.134Z,70.50
2018-01-06T03:48:52.408Z,70.60
2018-01-06T03:51:19.925Z,70.20
2018-01-06T03:53:47.453Z,70.00
2018-01-06T03:56:14.977Z,70.50
2018-01-06T03:58:42.518Z,70.10
2018-01-06T04:01:10.033Z,70.00
2018-01-06T04:03:38.289Z,69.50
2018-01-06T04:06:05.808Z,69.40
2018-01-06T04:08:33.337Z,69.90
2018-01-06T04:11:00.861Z,69.70
2018-01-06T04:13:29.178Z,69.80
2018-01-06T04:15:57.454Z,70.00
2018-01-06T04:18:24.984Z,70.30
2018-01-06T04:20:52.513Z,70.30
2018-01-06T04:23:20.977Z,71.90
2018-01-06T04:25:48.496Z,68.70
2018-01-06T04:28:16.472Z,68.40
2018-01-06T04:30:44.685Z,68.90
2018-01-06T04:33:12.211Z,69.90
2018-01-06T04:35:39.712Z,69.80
2018-01-06T04:38:07.274Z,69.40
2018-01-06T04:40:34.776Z,69.20
2018-01-06T04:43:02.316Z,69.00
2018-01-06T04:45:29.829Z,69.10
2018-01-06T04:47:57.361Z,69.20
2018-01-06T04:50:24.893Z,69.70
2018-01-06T04:52:52.430Z,69.20
2018-01-06T04:55:19.949Z,69.00
2018-01-06T04:57:48.004Z,69.30
2018-01-06T05:00:15.508Z,69.90
2018-01-06T05:02:43.009Z,70.40
2018-01-06T05:05:11.733Z,70.80
2018-01-06T05:07:39.246Z,70.30
2018-01-06T05:10:06.777Z,70.90
2018-01-06T05:12:34.295Z,70.90
2018-01-06T05:15:01.817Z,69.40
2018-01-06T05:17:29.327Z,69.90
2018-01-06T05:19:56.844Z,69.40
2018-01-06T05:22:24.349Z,69.20
2018-01-06T05:24:51.889Z,69.70
2018-01-06T05:27:19.392Z,69.70
2018-01-06T05:29:47.741Z,69.30
2018-01-06T05:32:15.249Z,69.20
2018-01-06T05:34:43.224Z,69.70
2018-01-06T05:37:11.230Z,69.10
2018-01-06T05:39:39.284Z,69.60
2018-01-06T05:42:06.783Z,69.20
2018-01-06T05:44:35.084Z,69.90
2018-01-06T05:47:02.612Z,69.90
2018-01-06T05:49:30.394Z,69.60
2018-01-06T05:51:57.911Z,70.00
2018-01-06T05:54:25.454Z,69.50
2018-01-06T05:56:53.686Z,70.00
2018-01-06T05:59:21.226Z,69.60
2018-01-06T06:01:48.733Z,70.20
2018-01-06T06:04:16.257Z,69.30
2018-01-06T06:06:43.755Z,69.60
2018-01-06T06:09:11.292Z,69.70
2018-01-06T06:11:38.802Z,70.20
2018-01-06T06:14:06.337Z,69.30
2018-01-06T06:16:33.872Z,69.50
2018-01-06T06:19:01.396Z,70.00
2018-01-06T06:21:28.922Z,69.20
2018-01-06T06:23:56.420Z,69.80
2018-01-06T06:26:25.466Z,70.30
2018-01-06T06:28:53.208Z,70.20
2018-01-06T06:31:21.510Z,70.00
2018-01-06T06:33:49.024Z,70.00
2018-01-06T06:36:16.558Z,69.50
2018-01-06T06:38:44.069Z,69.80
2018-01-06T06:41:11.610Z,70.30
2018-01-06T06:43:39.116Z,70.40
2018-01-06T06:46:06.651Z,70.90
2018-01-06T06:48:34.173Z,70.20
2018-01-06T06:51:01.705Z,70.70
2018-01-06T06:53:29.208Z,70.50
2018-01-06T06:55:57.652Z,71.10
2018-01-06T06:58:25.165Z,70.30
2018-01-06T07:00:53.453Z,70.90
2018-01-06T07:03:20.970Z,70.90
2018-01-06T07:05:48.508Z,70.50
2018-01-06T07:08:16.020Z,70.70
2018-01-06T07:10:44.312Z,71.00
2018-01-06T07:13:12.212Z,70.50
2018-01-06T07:15:39.736Z,70.00
2018-01-06T07:18:07.988Z,70.00
2018-01-06T07:20:36.293Z,70.40
2018-01-06T07:23:03.818Z,69.80
2018-01-06T07:25:32.157Z,70.00
2018-01-06T07:27:59.669Z,70.20
2018-01-06T07:30:27.185Z,70.50
2018-01-06T07:32:55.454Z,70.80
2018-01-06T07:35:22.965Z,70.80
2018-01-06T07:37:51.253Z,70.70
2018-01-06T07:40:19.530Z,71.10
2018-01-06T07:42:47.066Z,71.10
2018-01-06T07:45:15.065Z,70.10
2018-01-06T07:47:42.605Z,69.80
2018-01-06T07:50:10.876Z,70.30
2018-01-06T07:52:38.409Z,69.90
2018-01-06T07:55:05.921Z,70.40
2018-01-06T07:57:33.458Z,70.80
2018-01-06T08:00:01.733Z,71.70
2018-01-06T08:02:29.259Z,71.10
2018-01-06T08:04:56.766Z,70.40
2018-01-06T08:07:25.577Z,71.00
2018-01-06T08:09:53.093Z,71.50
2018-01-06T08:12:20.638Z,70.70
2018-01-06T08:14:48.976Z,70.60
2018-01-06T08:17:16.527Z,70.40
2018-01-06T08:19:44.040Z,71.00
2018-01-06T08:22:11.572Z,70.40
2018-01-06T08:24:39.088Z,70.40
2018-01-06T08:27:06.678Z,70.90
2018-01-06T08:29:34.154Z,70.80
2018-01-06T08:32:01.713Z,69.20
2018-01-06T08:34:29.264Z,69.20
2018-01-06T08:36:56.799Z,69.70
2018-01-06T08:39:25.085Z,69.80
2018-01-06T08:41:52.623Z,69.30
2018-01-06T08:44:20.133Z,69.50
2018-01-06T08:46:47.669Z,69.70
2018-01-06T08:49:15.199Z,70.00
2018-01-06T08:51:43.509Z,70.40
2018-01-06T08:54:11.039Z,69.80
2018-01-06T08:56:39.385Z,70.00
2018-01-06T08:59:06.916Z,69.60
2018-01-06T09:01:34.453Z,69.40
2018-01-06T09:04:02.746Z,70.20
2018-01-06T09:06:30.266Z,69.80
2018-01-06T09:08:57.836Z,69.80
2018-01-06T09:11:26.121Z,70.10
2018-01-06T09:13:54.597Z,69.50
2018-01-06T09:16:22.123Z,69.40
2018-01-06T09:18:49.657Z,69.10
2018-01-06T09:21:17.981Z,68.70
2018-01-06T09:23:45.516Z,68.40
2018-01-06T09:26:13.043Z,67.50
2018-01-06T09:28:40.589Z,67.50
2018-01-06T09:31:08.507Z,66.70
2018-01-06T09:33:36.049Z,67.20
2018-01-06T09:36:03.967Z,67.40
2018-01-06T09:38:32.276Z,68.50
2018-01-06T09:40:59.801Z,67.90
2018-01-06T09:43:27.350Z,67.80
2018-01-06T09:45:54.868Z,67.60
2018-01-06T09:48:22.457Z,67.70
2018-01-06T09:50:50.741Z,67.60
2018-01-06T09:53:18.280Z,67.20
2018-01-06T09:55:45.798Z,67.50
2018-01-06T09:58:14.112Z,67.70
2018-01-06T10:00:41.639Z,67.70
2018-01-06T10:03:09.953Z,67.10
2018-01-06T10:05:37.469Z,67.00
2018-01-06T10:08:05.663Z,65.80
2018-01-06T10:10:33.198Z,65.50
2018-01-06T10:13:00.760Z,65.70
2018-01-06T10:15:28.284Z,65.20
2018-01-06T10:17:56.210Z,64.90
2018-01-06T10:20:23.756Z,64.50
2018-01-06T10:22:52.384Z,64.90
2018-01-06T10:25:19.935Z,64.60
2018-01-06T10:27:47.786Z,64.20
2018-01-06T10:30:15.327Z,64.20
2018-01-06T10:32:43.604Z,65.80
2018-01-06T10:35:13.244Z,65.00
2018-01-06T10:37:40.757Z,65.60
2018-01-06T10:40:08.293Z,64.80
2018-01-06T10:42:36.700Z,65.20
2018-01-06T10:45:05.176Z,64.40
2018-01-06T10:47:32.738Z,65.00
2018-01-06T10:50:00.997Z,64.60
2018-01-06T10:52:28.524Z,65.00
2018-01-06T10:54:56.073Z,63.50
2018-01-06T10:57:23.597Z,61.00
2018-01-06T10:59:51.141Z,59.40
2018-01-06T11:02:18.660Z,56.70
2018-01-06T11:04:47.033Z,57.10
2018-01-06T11:07:14.557Z,55.20
2018-01-06T11:09:42.769Z,52.90
2018-01-06T11:12:10.288Z,53.50
2018-01-06T11:14:37.868Z,52.40
2018-01-06T11:17:05.389Z,52.60
2018-01-06T11:19:33.333Z,50.90
2018-01-06T11:22:01.628Z,51.10
2018-01-06T11:24:29.949Z,52.50
2018-01-06T11:26:58.246Z,53.50
2018-01-06T11:29:26.544Z,53.50
2018-01-06T11:31:55.375Z,53.80
2018-01-06T11:34:23.666Z,54.30
2018-01-06T11:36:51.974Z,53.80
2018-01-06T11:39:20.366Z,54.30
2018-01-06T11:41:48.669Z,54.60
2018-01-06T11:44:16.950Z,54.50
2018-01-06T11:46:45.262Z,54.60
2018-01-06T11:49:13.547Z,55.60
2018-01-06T11:51:42.169Z,57.40
2018-01-06T11:54:10.078Z,56.70
2018-01-06T11:56:37.624Z,55.60
2018-01-06T11:59:05.542Z,56.50
2018-01-06T12:01:33.841Z,56.80
2018-01-06T12:04:02.897Z,56.90
2018-01-06T12:06:30.829Z,57.60
2018-01-06T12:08:59.080Z,57.40
2018-01-06T12:11:27.381Z,57.50
2018-01-06T12:13:55.718Z,57.20
2018-01-06T12:16:24.024Z,57.10
2018-01-06T12:18:52.336Z,57.10
2018-01-06T12:21:20.671Z,54.60
2018-01-06T12:23:48.961Z,55.30
2018-01-06T12:26:17.256Z,57.20
2018-01-06T12:28:45.609Z,55.00
2018-01-06T12:31:13.955Z,57.10
2018-01-06T12:33:42.280Z,56.20
2018-01-06T12:36:10.569Z,55.70
2018-01-06T12:38:38.973Z,54.50
2018-01-06T12:41:07.299Z,55.60
2018-01-06T12:43:35.564Z,55.60
2018-01-06T12:46:03.111Z,56.00
2018-01-06T12:48:31.045Z,55.40
2018-01-06T12:51:00.208Z,54.20
2018-01-06T12:53:27.737Z,53.20
2018-01-06T12:55:56.121Z,52.60
2018-01-06T12:58:24.542Z,52.50
2018-01-06T13:00:52.820Z,53.10
2018-01-06T13:03:21.139Z,53.50
2018-01-06T13:05:49.426Z,53.20
2018-01-06T13:08:17.736Z,53.00
2018-01-06T13:10:46.015Z,53.50
2018-01-06T13:13:13.554Z,53.70
2018-01-06T13:15:41.473Z,53.70
2018-01-06T13:18:09.776Z,55.00
2018-01-06T13:20:38.065Z,55.90
2018-01-06T13:23:06.514Z,55.80
2018-01-06T13:25:34.804Z,55.80
2018-01-06T13:28:03.101Z,55.80
2018-01-06T13:30:31.372Z,55.20
2018-01-06T13:32:59.690Z,54.70
2018-01-06T13:35:28.278Z,53.80
2018-01-06T13:37:56.581Z,53.40
2018-01-06T13:40:24.864Z,53.10
2018-01-06T13:42:53.172Z,53.10
2018-01-06T13:45:21.450Z,51.40
2018-01-06T13:47:49.753Z,50.80
2018-01-06T13:50:18.039Z,52.10
2018-01-06T13:52:46.344Z,52.60
2018-01-06T13:55:14.696Z,53.00
2018-01-06T13:57:42.994Z,53.10
2018-01-06T14:00:10.498Z,53.60
2018-01-06T14:02:38.434Z,53.30
2018-01-06T14:05:07.117Z,50.80
2018-01-06T14:07:35.937Z,48.70
2018-01-06T14:10:03.478Z,45.30
2018-01-06T14:12:31.852Z,44.50
2018-01-06T14:15:00.233Z,42.40
2018-01-06T14:17:28.474Z,43.20
2018-01-06T14:19:56.774Z,42.30
2018-01-06T14:22:25.047Z,41.30
2018-01-06T14:24:53.820Z,41.20
2018-01-06T14:27:22.812Z,41.90
2018-01-06T14:29:50.341Z,41.50
2018-01-06T14:32:18.254Z,41.70
2018-01-06T14:34:47.922Z,42.30
2018-01-06T14:37:16.226Z,42.80
2018-01-06T14:39:43.752Z,44.30
2018-01-06T14:42:11.669Z,43.60
2018-01-06T14:44:40.007Z,42.40
2018-01-06T14:47:08.285Z,43.30
2018-01-06T14:49:37.445Z,44.50
2018-01-06T14:52:04.991Z,44.60
2018-01-06T14:54:33.521Z,46.00
2018-01-06T14:57:01.535Z,45.70
2018-01-06T14:59:29.845Z,46.20
2018-01-06T15:01:58.868Z,47.20
2018-01-06T15:04:26.463Z,46.30
2018-01-06T15:06:54.740Z,46.00
2018-01-06T15:09:22.259Z,46.00
2018-01-06T15:11:50.239Z,45.90
2018-01-06T15:14:18.542Z,46.90
2018-01-06T15:16:47.852Z,48.50
2018-01-06T15:19:15.825Z,48.90
2018-01-06T15:21:43.329Z,50.30
2018-01-06T15:24:11.760Z,50.80
2018-01-06T15:26:40.045Z,51.00
2018-01-06T15:29:08.342Z,51.70
2018-01-06T15:31:36.660Z,52.00
2018-01-06T15:34:05.268Z,52.60
2018-01-06T15:36:33.560Z,53.00
2018-01-06T15:39:02.971Z,53.10
2018-01-06T15:41:31.272Z,53.70
2018-01-06T15:43:59.083Z,54.20
2018-01-06T15:46:26.617Z,54.20
2018-01-06T15:48:54.955Z,54.40
2018-01-06T15:51:23.298Z,54.60
2018-01-06T15:53:52.156Z,55.20
2018-01-06T15:56:20.080Z,55.70
2018-01-06T15:58:48.377Z,55.60
2018-01-06T16:01:16.669Z,56.20
2018-01-06T16:03:44.957Z,56.40
2018-01-06T16:06:14.268Z,56.70
2018-01-06T16:08:41.784Z,56.60
2018-01-06T16:11:09.797Z,57.20
2018-01-06T16:13:38.109Z,57.70
2018-01-06T16:16:06.722Z,58.00
2018-01-06T16:18:34.665Z,58.10
2018-01-06T16:21:02.597Z,58.20
2018-01-06T16:23:30.145Z,58.40
2018-01-06T16:25:57.677Z,58.70
2018-01-06T16:28:25.234Z,58.80
2018-01-06T16:30:52.762Z,59.30
2018-01-06T16:33:21.033Z,58.80
2018-01-06T16:35:48.607Z,59.30
2018-01-06T16:38:17.525Z,60.10
2018-01-06T16:40:45.060Z,59.50
2018-01-06T16:43:13.394Z,60.00
2018-01-06T16:45:40.924Z,59.60
2018-01-06T16:48:08.439Z,59.50
2018-01-06T16:50:36.815Z,59.70
2018-01-06T16:53:04.427Z,59.80
2018-01-06T16:55:31.967Z,59.80
2018-01-06T16:57:59.751Z,60.00
2018-01-06T17:00:27.270Z,60.10
2018-01-06T17:02:56.581Z,60.90
2018-01-06T17:05:24.171Z,60.50
2018-01-06T17:07:52.243Z,61.00
2018-01-06T17:10:19.757Z,61.20
2018-01-06T17:12:47.341Z,61.50
2018-01-06T17:15:14.856Z,61.70
2018-01-06T17:17:42.443Z,61.80
2018-01-06T17:20:09.964Z,62.40
2018-01-06T17:22:37.498Z,62.40
2018-01-06T17:25:05.097Z,62.50
2018-01-06T17:27:32.634Z,62.50
2018-01-06T17:30:01.047Z,62.40
2018-01-06T17:32:28.977Z,62.30
2018-01-06T17:34:56.532Z,62.10
2018-01-06T17:37:24.114Z,62.30
2018-01-06T17:39:51.684Z,62.20
2018-01-06T17:42:19.587Z,62.10
2018-01-06T17:44:47.143Z,62.20
2018-01-06T17:47:15.484Z,62.90
2018-01-06T17:49:42.988Z,62.30
2018-01-06T17:52:11.309Z,62.40
2018-01-06T17:54:38.821Z,62.50
2018-01-06T17:57:06.680Z,62.40
2018-01-06T17:59:34.235Z,62.40
2018-01-06T18:02:01.811Z,62.10
2018-01-06T18:04:29.793Z,62.10
2018-01-06T18:06:57.370Z,62.20
2018-01-06T18:09:24.884Z,62.30
2018-01-06T18:11:52.424Z,62.10
2018-01-06T18:14:20.701Z,62.80
2018-01-06T18:16:49.001Z,62.30
2018-01-06T18:19:16.977Z,62.60
2018-01-06T18:21:45.071Z,62.40
2018-01-06T18:24:12.601Z,62.10
2018-01-06T18:26:40.854Z,62.10
2018-01-06T18:29:08.390Z,65.70
2018-01-06T18:31:35.941Z,62.40
2018-01-06T18:34:03.517Z,62.20
2018-01-06T18:36:31.077Z,61.20
2018-01-06T18:38:58.613Z,61.10
2018-01-06T18:41:26.192Z,61.60
2018-01-06T18:43:54.227Z,62.20
2018-01-06T18:46:21.795Z,62.30
2018-01-06T18:48:49.401Z,61.70
2018-01-06T18:51:16.972Z,61.30
2018-01-06T18:53:44.550Z,61.90
2018-01-06T18:56:12.104Z,62.00
2018-01-06T18:58:40.311Z,62.50
2018-01-06T19:01:07.872Z,62.90
2018-01-06T19:03:35.440Z,62.90
2018-01-06T19:06:02.991Z,63.00
2018-01-06T19:08:31.341Z,63.60
2018-01-06T19:10:59.512Z,63.30
2018-01-06T19:13:27.854Z,63.00
2018-01-06T19:15:56.383Z,63.00
2018-01-06T19:18:24.740Z,63.10
2018-01-06T19:20:52.328Z,63.20
2018-01-06T19:23:20.136Z,63.30
2018-01-06T19:25:47.695Z,63.30
2018-01-06T19:28:15.689Z,63.50
2018-01-06T19:30:43.238Z,63.40
2018-01-06T19:33:10.832Z,64.30
2018-01-06T19:35:38.405Z,65.30
2018-01-06T19:38:06.255Z,63.50
2018-01-06T19:40:34.224Z,63.20
2018-01-06T19:43:01.788Z,63.40
2018-01-06T19:45:29.405Z,64.10
2018-01-06T19:47:57.400Z,63.20
2018-01-06T19:50:24.985Z,63.30
2018-01-06T19:52:52.557Z,63.70
2018-01-06T19:55:20.136Z,63.60
2018-01-06T19:57:49.267Z,64.90
2018-01-06T20:00:16.856Z,64.10
2018-01-06T20:02:44.416Z,63.80
2018-01-06T20:05:12.769Z,64.70
2018-01-06T20:07:40.337Z,64.50
2018-01-06T20:10:08.127Z,64.00
2018-01-06T20:12:35.691Z,63.80
2018-01-06T20:15:04.233Z,63.80
2018-01-06T20:17:31.803Z,63.90
2018-01-06T20:20:00.188Z,63.30
2018-01-06T20:22:27.913Z,63.50
2018-01-06T20:24:55.540Z,63.50
2018-01-06T20:27:23.109Z,63.50
2018-01-06T20:29:51.458Z,63.70
2018-01-06T20:32:19.024Z,63.20
2018-01-06T20:34:46.613Z,63.60
2018-01-06T20:37:14.193Z,63.70
2018-01-06T20:39:41.828Z,63.20
2018-01-06T20:42:10.280Z,63.50
2018-01-06T20:44:37.892Z,63.40
2018-01-06T20:47:05.472Z,63.30
2018-01-06T20:49:33.727Z,63.50
2018-01-06T20:52:01.320Z,64.50
2018-01-06T20:54:28.896Z,64.60
2018-01-06T20:56:56.472Z,64.30
2018-01-06T20:59:24.043Z,63.80
2018-01-06T21:01:51.642Z,63.70
2018-01-06T21:04:19.603Z,63.80
2018-01-06T21:06:47.193Z,64.00
2018-01-06T21:09:14.766Z,64.10
2018-01-06T21:11:43.972Z,63.90
2018-01-06T21:14:11.543Z,63.90
2018-01-06T21:16:39.122Z,63.70
2018-01-06T21:19:06.733Z,63.70
2018-01-06T21:21:35.084Z,64.50
2018-01-06T21:24:02.657Z,64.00
2018-01-06T21:26:31.007Z,65.00
2018-01-06T21:28:58.617Z,63.50
2018-01-06T21:31:26.187Z,63.10
2018-01-06T21:33:53.788Z,63.40
2018-01-06T21:36:21.375Z,63.90
2018-01-06T21:38:48.956Z,63.90
2018-01-06T21:41:17.308Z,64.40
2018-01-06T21:43:44.885Z,64.00
2018-01-06T21:46:13.235Z,65.30
2018-01-06T21:48:40.803Z,64.00
2018-01-06T21:51:08.378Z,63.50
2018-01-06T21:53:36.704Z,64.10
2018-01-06T21:56:04.292Z,64.20
2018-01-06T21:58:32.251Z,64.50
2018-01-06T22:00:59.820Z,64.70
2018-01-06T22:03:27.396Z,64.70
2018-01-06T22:05:54.965Z,64.50
2018-01-06T22:08:22.576Z,64.30
2018-01-06T22:10:50.147Z,63.40
2018-01-06T22:13:17.722Z,63.50
2018-01-06T22:15:45.289Z,63.60
2018-01-06T22:18:13.272Z,63.10
2018-01-06T22:20:40.844Z,63.40
2018-01-06T22:23:09.190Z,64.00
2018-01-06T22:25:36.753Z,63.70
2018-01-06T22:28:04.328Z,63.40
2018-01-06T22:30:31.904Z,63.30
2018-01-06T22:32:59.498Z,63.60
2018-01-06T22:35:27.064Z,63.90
2018-01-06T22:37:54.648Z,64.10
2018-01-06T22:40:22.207Z,64.40
2018-01-06T22:42:49.793Z,64.80
2018-01-06T22:45:17.826Z,63.50
2018-01-06T22:47:45.395Z,63.40
2018-01-06T22:50:12.969Z,64.00
2018-01-06T22:52:40.560Z,64.90
2018-01-06T22:55:08.156Z,64.70
2018-01-06T22:57:36.134Z,64.30
2018-01-06T23:00:04.565Z,64.80
2018-01-06T23:02:32.164Z,64.00
2018-01-06T23:05:00.122Z,63.30
2018-01-06T23:07:28.783Z,63.00
2018-01-06T23:09:56.378Z,63.70
2018-01-06T23:12:23.956Z,64.10
2018-01-06T23:14:51.547Z,63.60
2018-01-06T23:17:19.124Z,64.30
2018-01-06T23:19:47.045Z,64.10
2018-01-06T23:22:15.316Z,63.70
2018-01-06T23:24:42.899Z,63.60
2018-01-06T23:27:10.464Z,63.60
2018-01-06T23:29:38.043Z,64.10
2018-01-06T23:32:06.760Z,63.90
2018-01-06T23:34:34.345Z,63.70
2018-01-06T23:37:01.911Z,63.40
2018-01-06T23:39:29.500Z,63.50
2018-01-06T23:41:58.278Z,63.60
2018-01-06T23:44:27.956Z,64.60
2018-01-06T23:46:55.528Z,64.20
2018-01-06T23:49:23.117Z,64.50
2018-01-06T23:51:51.980Z,64.70
2018-01-06T23:54:19.565Z,64.30
2018-01-06T23:56:47.136Z,63.90
2018-01-06T23:59:14.715Z,61.90
